Clintonville, West Virginia
Current Conditions -  °F | °C
As of 3:35 AM on Friday 19 Dec 2014 (Local Time) from KLWB Reporting Station
Broken Clouds Broken Clouds  
Wind Chill: 28°   Ceiling: 4500
Heat Index: 28°   Visibility: 10mi
Dew Point: 22°   Wind: 3mph
Humidity: 78%   Direction: 270°W
Pressure: 30.1"   Gusts: NA
Location:  37.9616°N, 80.6134°W
Report Text: KLWB 190835Z AUTO 27003KT 10SM BKN045 M02/M06 A3010 RMK AO2 T10251058
Loading
Personal Weather Stations






























Interactive Weather Map New forecast layout! Learn more

10-Day Weather Forecast

Advertisements
Track Severe Weather on mobile